createdAt,value
2023-03-29T00:03:04.345Z,68.03
2023-03-29T00:06:33.232Z,68.93
2023-03-29T00:09:54.699Z,68.60
2023-03-29T00:13:17.958Z,69.40
2023-03-29T00:16:39.518Z,68.91
2023-03-29T00:20:01.007Z,68.54
2023-03-29T00:23:25.090Z,68.61
2023-03-29T00:26:46.782Z,68.65
2023-03-29T00:30:11.172Z,68.99
2023-03-29T00:33:32.964Z,69.10
2023-03-29T00:36:58.009Z,69.53
2023-03-29T00:40:19.876Z,68.86
2023-03-29T00:43:56.767Z,69.26
2023-03-29T00:47:27.283Z,68.19
2023-03-29T00:50:52.111Z,68.31
2023-03-29T00:54:18.688Z,68.25
2023-03-29T00:57:43.332Z,67.78
2023-03-29T01:01:08.828Z,68.25
2023-03-29T01:04:36.435Z,68.02
2023-03-29T01:08:01.735Z,68.66
2023-03-29T01:11:28.405Z,68.15
2023-03-29T01:14:54.322Z,67.83
2023-03-29T01:18:16.283Z,68.02
2023-03-29T01:21:46.142Z,68.83
2023-03-29T01:25:17.200Z,69.05
2023-03-29T01:28:46.171Z,69.01
2023-03-29T01:32:13.054Z,68.89
2023-03-29T01:35:41.188Z,69.92
2023-03-29T01:39:07.204Z,69.86
2023-03-29T01:42:39.950Z,69.77
2023-03-29T01:46:09.609Z,69.62
2023-03-29T01:49:37.139Z,69.01
2023-03-29T01:53:04.291Z,69.31
2023-03-29T01:56:29.250Z,69.84
2023-03-29T01:59:51.989Z,69.47
2023-03-29T02:03:17.421Z,70.69
2023-03-29T02:06:40.736Z,69.98
2023-03-29T02:10:03.288Z,69.09
2023-03-29T02:13:25.358Z,69.42
2023-03-29T02:16:49.639Z,69.52
2023-03-29T02:20:19.137Z,70.83
2023-03-29T02:23:46.690Z,70.74
2023-03-29T02:27:08.621Z,70.31
2023-03-29T02:30:35.768Z,70.95
2023-03-29T02:34:02.274Z,70.41
2023-03-29T02:37:30.198Z,71.09
2023-03-29T02:40:52.929Z,70.17
2023-03-29T02:44:18.171Z,70.16
2023-03-29T02:47:43.021Z,70.38
2023-03-29T02:51:10.227Z,70.70
2023-03-29T02:54:33.810Z,71.01
2023-03-29T02:57:55.421Z,71.44
2023-03-29T03:01:20.424Z,70.45
2023-03-29T03:04:44.719Z,70.74
2023-03-29T03:08:08.285Z,71.23
2023-03-29T03:11:31.190Z,71.24
2023-03-29T03:14:53.051Z,71.05
2023-03-29T03:18:15.071Z,71.08
2023-03-29T03:21:37.749Z,70.96
2023-03-29T03:24:59.429Z,70.70
2023-03-29T03:28:24.306Z,70.12
2023-03-29T03:31:46.875Z,69.90
2023-03-29T03:35:25.342Z,69.75
2023-03-29T03:38:47.724Z,69.47
2023-03-29T03:42:09.531Z,69.39
2023-03-29T03:45:37.984Z,69.67
2023-03-29T03:49:06.666Z,69.79
2023-03-29T03:52:32.808Z,70.76
2023-03-29T03:55:56.244Z,70.77
2023-03-29T03:59:22.446Z,70.86
2023-03-29T04:03:02.619Z,71.22
2023-03-29T04:06:25.447Z,70.83
2023-03-29T04:10:08.687Z,70.61
2023-03-29T04:13:33.288Z,70.94
2023-03-29T04:17:17.835Z,71.29
2023-03-29T04:20:46.119Z,71.50
2023-03-29T04:24:09.313Z,72.27
2023-03-29T04:27:33.751Z,71.28
2023-03-29T04:30:59.673Z,71.43
2023-03-29T04:34:34.078Z,71.79
2023-03-29T04:37:57.345Z,70.90
2023-03-29T04:41:20.074Z,71.20
2023-03-29T04:45:18.523Z,71.48
2023-03-29T04:48:57.407Z,70.58
2023-03-29T04:52:33.008Z,71.28
2023-03-29T04:55:59.390Z,70.79
2023-03-29T04:59:41.463Z,70.93
2023-03-29T05:03:14.646Z,70.90
2023-03-29T05:07:03.045Z,70.78
2023-03-29T05:10:25.206Z,71.47
2023-03-29T05:13:48.881Z,72.19
2023-03-29T05:17:10.646Z,72.41
2023-03-29T05:20:32.501Z,71.61
2023-03-29T05:23:55.301Z,71.60
2023-03-29T05:27:36.143Z,71.70
2023-03-29T05:31:06.322Z,71.45
2023-03-29T05:34:31.475Z,72.08
2023-03-29T05:37:56.548Z,71.43
2023-03-29T05:41:18.952Z,71.53
2023-03-29T05:45:03.281Z,71.45
2023-03-29T05:48:27.383Z,70.88
2023-03-29T05:51:49.288Z,70.70
2023-03-29T05:55:11.684Z,71.68
2023-03-29T05:58:34.382Z,70.80
2023-03-29T06:01:56.248Z,71.25
2023-03-29T06:05:20.993Z,71.55
2023-03-29T06:08:53.215Z,71.25
2023-03-29T06:12:35.458Z,71.12
2023-03-29T06:15:58.624Z,71.08
2023-03-29T06:19:20.405Z,71.36
2023-03-29T06:22:44.216Z,71.74
2023-03-29T06:26:07.494Z,71.62
2023-03-29T06:29:31.717Z,71.15
2023-03-29T06:32:54.673Z,70.67
2023-03-29T06:36:36.778Z,69.39
2023-03-29T06:40:00.986Z,68.55
2023-03-29T06:43:29.171Z,68.06
2023-03-29T06:47:01.488Z,67.46
2023-03-29T06:50:23.448Z,67.04
2023-03-29T06:54:04.171Z,65.95
2023-03-29T06:57:28.013Z,65.60
2023-03-29T07:00:49.817Z,64.77
2023-03-29T07:04:18.944Z,65.09
2023-03-29T07:08:11.248Z,64.28
2023-03-29T07:11:46.700Z,64.06
2023-03-29T07:15:20.135Z,63.30
2023-03-29T07:19:01.709Z,63.01
2023-03-29T07:22:44.600Z,61.88
2023-03-29T07:26:07.620Z,62.04
2023-03-29T07:29:29.911Z,62.14
2023-03-29T07:32:53.558Z,62.16
2023-03-29T07:36:38.535Z,61.01
2023-03-29T07:40:01.240Z,60.97
2023-03-29T07:43:34.161Z,61.04
2023-03-29T07:46:56.247Z,60.46
2023-03-29T07:50:19.326Z,60.43
2023-03-29T07:53:41.088Z,60.29
2023-03-29T07:57:17.336Z,60.28
2023-03-29T08:00:45.576Z,59.83
2023-03-29T08:04:30.434Z,59.27
2023-03-29T08:08:28.663Z,59.46
2023-03-29T08:11:54.615Z,59.24
2023-03-29T08:15:24.176Z,58.89
2023-03-29T08:18:46.194Z,58.51
2023-03-29T08:22:08.151Z,57.92
2023-03-29T08:25:52.150Z,58.10
2023-03-29T08:29:14.094Z,57.73
2023-03-29T08:32:36.121Z,57.25
2023-03-29T08:35:57.764Z,57.55
2023-03-29T08:39:23.954Z,57.61
2023-03-29T08:43:25.983Z,58.09
2023-03-29T08:47:15.202Z,57.71
2023-03-29T08:50:41.694Z,57.59
2023-03-29T08:54:07.185Z,58.21
2023-03-29T08:57:51.661Z,57.96
2023-03-29T09:01:26.412Z,57.68
2023-03-29T09:04:52.440Z,57.31
2023-03-29T09:08:29.652Z,57.41
2023-03-29T09:12:09.403Z,57.37
2023-03-29T09:15:42.900Z,57.63
2023-03-29T09:19:38.774Z,57.19
2023-03-29T09:23:12.501Z,57.42
2023-03-29T09:26:59.121Z,57.11
2023-03-29T09:30:29.644Z,56.35
2023-03-29T09:33:59.671Z,56.49
2023-03-29T09:37:39.345Z,56.41
2023-03-29T09:41:22.271Z,56.79
2023-03-29T09:44:49.276Z,55.67
2023-03-29T09:48:19.509Z,56.01
2023-03-29T09:51:50.489Z,54.83
2023-03-29T09:55:18.411Z,55.64
2023-03-29T09:58:56.451Z,54.82
2023-03-29T10:02:21.167Z,55.00
2023-03-29T10:05:47.045Z,55.64
2023-03-29T10:09:17.415Z,55.70
2023-03-29T10:12:43.581Z,55.08
2023-03-29T10:16:07.488Z,54.91
2023-03-29T10:19:34.409Z,55.29
2023-03-29T10:22:57.928Z,55.08
2023-03-29T10:26:29.180Z,55.49
2023-03-29T10:29:52.997Z,55.58
2023-03-29T10:33:19.720Z,55.72
2023-03-29T10:36:42.696Z,56.00
2023-03-29T10:40:05.440Z,55.21
2023-03-29T10:43:29.776Z,55.14
2023-03-29T10:46:52.649Z,54.13
2023-03-29T10:50:16.805Z,54.13
2023-03-29T10:53:39.125Z,54.09
2023-03-29T10:57:05.670Z,55.00
2023-03-29T11:00:36.763Z,54.91
2023-03-29T11:04:12.845Z,53.82
2023-03-29T11:07:37.907Z,53.53
2023-03-29T11:11:12.630Z,54.00
2023-03-29T11:14:42.485Z,54.29
2023-03-29T11:18:24.903Z,53.74
2023-03-29T11:21:57.091Z,53.40
2023-03-29T11:25:35.968Z,54.54
2023-03-29T11:29:01.584Z,54.19
2023-03-29T11:32:30.386Z,54.03
2023-03-29T11:36:00.153Z,53.17
2023-03-29T11:39:37.762Z,53.52
2023-03-29T11:43:04.542Z,53.73
2023-03-29T11:46:31.522Z,53.49
2023-03-29T11:49:57.405Z,53.50
2023-03-29T11:53:26.342Z,53.55
2023-03-29T11:56:56.777Z,52.99
2023-03-29T12:00:24.129Z,52.59
2023-03-29T12:03:51.696Z,52.80
2023-03-29T12:07:18.948Z,52.60
2023-03-29T12:10:46.266Z,52.65
2023-03-29T12:14:15.315Z,51.99
2023-03-29T12:17:42.830Z,51.53
2023-03-29T12:21:12.148Z,51.24
2023-03-29T12:24:37.519Z,51.56
2023-03-29T12:28:09.902Z,52.15
2023-03-29T12:31:40.769Z,52.30
2023-03-29T12:35:19.246Z,51.68
2023-03-29T12:39:00.113Z,52.20
2023-03-29T12:42:53.224Z,53.20
2023-03-29T12:46:41.945Z,53.45
2023-03-29T12:50:04.725Z,53.48
2023-03-29T12:53:32.403Z,53.48
2023-03-29T12:57:01.104Z,53.38
2023-03-29T13:00:27.226Z,52.85
2023-03-29T13:03:52.664Z,52.84
2023-03-29T13:07:16.501Z,52.81
2023-03-29T13:10:42.396Z,53.40
2023-03-29T13:14:12.584Z,54.04
2023-03-29T13:17:46.035Z,53.06
2023-03-29T13:21:18.815Z,53.67
2023-03-29T13:25:06.679Z,53.92
2023-03-29T13:28:35.781Z,53.35
2023-03-29T13:32:05.360Z,52.50
2023-03-29T13:35:42.502Z,52.83
2023-03-29T13:39:08.356Z,53.01
2023-03-29T13:42:41.803Z,51.65
2023-03-29T13:46:20.210Z,51.50
2023-03-29T13:49:44.854Z,50.92
2023-03-29T13:53:13.817Z,51.06
2023-03-29T13:56:41.634Z,51.98
2023-03-29T14:00:11.793Z,52.71
2023-03-29T14:03:41.551Z,52.47
2023-03-29T14:07:03.783Z,52.64
2023-03-29T14:10:28.600Z,52.24
2023-03-29T14:13:53.725Z,53.07
2023-03-29T14:17:20.428Z,52.13
2023-03-29T14:20:45.070Z,52.19
2023-03-29T14:24:12.550Z,51.77
2023-03-29T14:27:37.801Z,51.94
2023-03-29T14:31:01.116Z,51.05
2023-03-29T14:34:24.141Z,51.77
2023-03-29T14:37:47.710Z,51.30
2023-03-29T14:41:10.054Z,51.75
2023-03-29T14:44:34.835Z,51.83
2023-03-29T14:48:00.618Z,51.91
2023-03-29T14:51:23.383Z,52.29
2023-03-29T14:54:49.541Z,52.48
2023-03-29T14:58:20.694Z,51.99
2023-03-29T15:01:45.582Z,51.54
2023-03-29T15:05:25.662Z,51.26
2023-03-29T15:09:03.778Z,51.94
2023-03-29T15:12:29.693Z,51.48
2023-03-29T15:15:54.830Z,52.16
2023-03-29T15:19:19.415Z,51.56
2023-03-29T15:22:54.753Z,51.83
2023-03-29T15:26:22.033Z,51.53
2023-03-29T15:29:46.880Z,51.95
2023-03-29T15:33:17.763Z,51.10
2023-03-29T15:36:43.198Z,51.04
2023-03-29T15:40:09.775Z,51.50
2023-03-29T15:43:32.011Z,51.01
2023-03-29T15:46:55.223Z,51.48
2023-03-29T15:50:16.753Z,51.80
2023-03-29T15:53:38.601Z,51.68
2023-03-29T15:57:06.578Z,52.68
2023-03-29T16:00:28.897Z,52.51
2023-03-29T16:03:51.132Z,51.74
2023-03-29T16:07:16.004Z,52.00
2023-03-29T16:10:37.670Z,52.26
2023-03-29T16:14:01.214Z,52.24
2023-03-29T16:17:22.945Z,52.88
2023-03-29T16:20:44.882Z,52.57
2023-03-29T16:24:07.307Z,52.69
2023-03-29T16:27:29.683Z,53.01
2023-03-29T16:30:52.907Z,52.94
2023-03-29T16:34:16.253Z,52.94
2023-03-29T16:37:37.720Z,52.70
2023-03-29T16:40:59.513Z,53.06
2023-03-29T16:44:24.359Z,52.85
2023-03-29T16:47:47.618Z,53.17
2023-03-29T16:51:10.418Z,53.08
2023-03-29T16:54:32.626Z,53.37
2023-03-29T16:57:54.336Z,53.58
2023-03-29T17:01:17.556Z,54.38
2023-03-29T17:04:40.473Z,54.08
2023-03-29T17:08:02.230Z,54.39
2023-03-29T17:11:24.080Z,55.07
2023-03-29T17:14:45.853Z,55.09
2023-03-29T17:18:07.797Z,55.53
2023-03-29T17:21:31.687Z,55.46
2023-03-29T17:24:53.605Z,55.84
2023-03-29T17:28:15.379Z,56.06
2023-03-29T17:31:38.019Z,55.94
2023-03-29T17:35:00.325Z,56.60
2023-03-29T17:38:23.653Z,56.32
2023-03-29T17:41:45.713Z,56.78
2023-03-29T17:45:08.832Z,57.03
2023-03-29T17:48:31.759Z,56.64
2023-03-29T17:51:53.609Z,57.37
2023-03-29T17:55:17.303Z,57.21
2023-03-29T17:58:39.382Z,57.70
2023-03-29T18:02:02.562Z,57.57
2023-03-29T18:05:24.098Z,58.00
2023-03-29T18:08:46.319Z,58.35
2023-03-29T18:12:09.891Z,58.28
2023-03-29T18:15:31.763Z,58.21
2023-03-29T18:18:53.538Z,58.59
2023-03-29T18:22:15.387Z,58.91
2023-03-29T18:25:38.717Z,59.16
2023-03-29T18:29:01.871Z,58.61
2023-03-29T18:32:23.784Z,59.01
2023-03-29T18:35:48.586Z,58.80
2023-03-29T18:39:10.986Z,59.35
2023-03-29T18:42:32.550Z,59.28
2023-03-29T18:45:55.897Z,59.57
2023-03-29T18:49:17.336Z,59.54
2023-03-29T18:52:39.304Z,59.91
2023-03-29T18:56:02.648Z,60.11
2023-03-29T18:59:24.377Z,60.02
2023-03-29T19:02:47.427Z,60.19
2023-03-29T19:06:10.107Z,60.30
2023-03-29T19:09:32.421Z,59.88
2023-03-29T19:12:54.231Z,60.13
2023-03-29T19:16:15.955Z,60.57
2023-03-29T19:19:39.288Z,60.21
2023-03-29T19:23:01.778Z,60.65
2023-03-29T19:26:23.418Z,60.36
2023-03-29T19:29:46.166Z,60.67
2023-03-29T19:33:07.749Z,60.25
2023-03-29T19:36:32.002Z,60.89
2023-03-29T19:39:55.564Z,60.69
2023-03-29T19:43:18.040Z,60.90
2023-03-29T19:46:39.348Z,60.96
2023-03-29T19:50:01.806Z,61.06
2023-03-29T19:53:24.759Z,61.52
2023-03-29T19:56:46.358Z,61.22
2023-03-29T20:00:10.110Z,61.68
2023-03-29T20:03:36.097Z,61.67
2023-03-29T20:06:57.818Z,61.75
2023-03-29T20:10:21.120Z,61.54
2023-03-29T20:13:44.486Z,61.97
2023-03-29T20:17:06.029Z,61.62
2023-03-29T20:20:28.353Z,61.73
2023-03-29T20:23:50.253Z,61.60
2023-03-29T20:27:13.865Z,61.69
2023-03-29T20:30:36.361Z,61.43
2023-03-29T20:33:57.929Z,61.80
2023-03-29T20:37:23.057Z,62.12
2023-03-29T20:40:44.937Z,62.12
2023-03-29T20:44:07.912Z,62.14
2023-03-29T20:47:29.743Z,62.55
2023-03-29T20:50:52.104Z,62.45
2023-03-29T20:54:14.368Z,62.50
2023-03-29T20:57:37.998Z,62.89
2023-03-29T21:01:01.177Z,62.70
2023-03-29T21:04:23.311Z,62.55
2023-03-29T21:07:47.965Z,63.03
2023-03-29T21:11:13.048Z,62.87
2023-03-29T21:14:34.872Z,63.09
2023-03-29T21:17:57.976Z,63.15
2023-03-29T21:21:19.493Z,63.26
2023-03-29T21:24:41.543Z,63.47
2023-03-29T21:28:03.083Z,63.41
2023-03-29T21:31:25.434Z,63.71
2023-03-29T21:34:48.693Z,63.29
2023-03-29T21:38:10.346Z,63.40
2023-03-29T21:41:31.686Z,63.99
2023-03-29T21:44:53.181Z,64.01
2023-03-29T21:48:14.989Z,63.91
2023-03-29T21:51:38.319Z,64.39
2023-03-29T21:54:59.870Z,64.29
2023-03-29T21:58:22.069Z,64.15
2023-03-29T22:01:44.097Z,64.13
2023-03-29T22:05:06.972Z,64.11
2023-03-29T22:08:30.899Z,64.48
2023-03-29T22:11:52.473Z,64.60
2023-03-29T22:15:15.081Z,64.61
2023-03-29T22:18:43.327Z,64.26
2023-03-29T22:22:07.295Z,64.52
2023-03-29T22:25:30.508Z,64.41
2023-03-29T22:28:52.736Z,64.52
2023-03-29T22:32:14.496Z,64.35
2023-03-29T22:35:36.557Z,64.37
2023-03-29T22:38:58.507Z,65.02
2023-03-29T22:42:21.714Z,64.63
2023-03-29T22:45:43.495Z,65.19
2023-03-29T22:49:06.142Z,65.37
2023-03-29T22:52:27.760Z,65.31
2023-03-29T22:55:49.602Z,65.40
2023-03-29T22:59:13.019Z,65.44
2023-03-29T23:02:34.794Z,65.60
2023-03-29T23:05:58.584Z,65.62
2023-03-29T23:09:20.420Z,65.64
2023-03-29T23:12:42.903Z,65.67
2023-03-29T23:16:06.626Z,65.94
2023-03-29T23:19:28.357Z,66.10
2023-03-29T23:22:50.291Z,66.05
2023-03-29T23:26:11.849Z,66.20
2023-03-29T23:29:34.499Z,66.14
2023-03-29T23:32:58.262Z,66.03
2023-03-29T23:36:21.415Z,66.33
2023-03-29T23:39:42.730Z,66.17
2023-03-29T23:43:04.516Z,66.29
2023-03-29T23:46:26.365Z,66.72
2023-03-29T23:49:50.679Z,66.94
2023-03-29T23:53:12.472Z,67.02
2023-03-29T23:56:34.238Z,66.97
